Language selection

Features

My Weather Profile Weather Topics  | 

Gulf - Port au Port - northwestern half: Past 24 Hour Conditions

 

Natashquan Airport

07:00 AM EST 18 January 2020
Disclaimer

This table is a summary of hourly weather conditions for the past 24 hours.
Please note that these observations might not always be representative of weather conditions over their associated marine area.

Date / Time
(EST)
Wind(knots) Conditions Visibility(km) Pressure(kPa) Air tempC) Relative humidity(%) Dew pointC) Wind Chill
18 January 2020
7:00 WNW 11 Sunny 16 101.9 -24 61 -29 -35
6:00 WNW 9 gust 15 Clear 16 101.9 -24 64 -29 -34
5:00 W 10 gust 15 Clear 16 101.8 -24 64 -29 -35
4:00 NW 10 gust 15 Clear 16 101.8 -23 60 -29 -34
3:00 NW 14 gust 21 Clear 16 101.9 -23 59 -29 -36
2:00 NW 13 gust 22 Clear 16 102.0 -22 58 -28 -34
1:00 N 17 gust 24 Clear 16 101.8 -21 58 -28 -35
0:00 N 19 gust 26 Clear 16 101.8 -21 59 -27 -34
17 January 2020
23:00 N 19 gust 26 Clear 13 101.8 -21 58 -27 -34
22:00 N 18 gust 25 Clear 16 101.8 -21 56 -28 -35
21:00 NNW 18 gust 23 Clear 16 101.9 -21 56 -28 -34
20:00 NNW 13 Clear 16 102.0 -21 55 -28 -32
19:00 NW 6 Clear 16 102.0 -21 55 -28 -29
18:00 NNW 17 Clear 16 101.9 -20 52 -28 -33
17:00 N 9 gust 15 Clear 16 101.9 -20 49 -28 -29
16:00 NNW 11 gust 18 Clear 16 101.9 -20 49 -28 -30
15:00 NW 14 Sunny 16 101.8 -19 50 -27 -30
14:00 NW 15 gust 20 Sunny 16 101.7 -19 48 -27 -31
13:00 NNW 15 Sunny 16 101.7 -19 45 -28 -31
12:00 N 15 gust 23 Sunny 16 101.8 -20 47 -28 -32
11:00 N 17 gust 25 Sunny 15 101.9 -21 49 -29 -34
10:00 N 15 gust 21 Sunny 16 101.9 -22 51 -29 -34
9:00 N 14 Sunny 16 101.9 -23 52 -30 -36
8:00 N 12 gust 17 Sunny 16 101.9 -24 54 -31 -36
7:00 N 12 gust 18 Sunny 16 101.8 -24 55 -30 -36

Zoom-in to make a selection

Map of Atlantic - Newfoundland marine weather areas Banquereau - 44139 Blanc-Sablon Airport Cap Whittle Chevery Natashquan Airport Heath Point Îles de la Madeleine Airport Miscou Island Eskasoni (First Nations) Grand Étang Ingonish Beach North Mountain St.Paul Island J.A. Douglas McCurdy Sydney Airport Charlottetown Airport East Point North Cape Argentia Bonavista Burgeo Cape Race Corner Brook Daniel's Harbour Englee Ferolle Point La Scie Port aux Basques Rocky Harbour Sagona Island St. Anthony Airport St. John's Int'l Airport St. Lawrence Stephenville Airport Twillingate Winterland Branch Hill Wreckhouse Grates Cove Pool's Island Marticot Island Long Pond Cartwright Airport Mary's Harbour
Legend:
buoy Buoy
land station Land Station

Atlantic - Newfoundland Area

Another Region

What we are doing

Date modified: